EST,Max TemperatureF,Mean TemperatureF,Min TemperatureF,Max Dew PointF,MeanDew PointF,Min DewpointF,Max Humidity, Mean Humidity, Min Humidity, Max Sea Level PressureIn, Mean Sea Level PressureIn, Min Sea Level PressureIn, Max VisibilityMiles, Mean VisibilityMiles, Min VisibilityMiles, Max Wind SpeedMPH, Mean Wind SpeedMPH, Max Gust SpeedMPH,PrecipitationIn, CloudCover, Events, WindDirDegrees
2011-2-1,31,24,16,27,18,13,92,88,84,30.14,29.95,29.49,6,3,0,36,17,47,0.00,8,Fog-Rain-Snow,66
2011-2-2,36,27,18,34,19,15,92,82,72,30.45,29.97,29.43,10,5,0,32,16,41,0.02,8,Fog-Rain-Snow,276
2011-2-3,22,15,8,15,9,5,91,76,61,30.56,30.48,30.41,10,10,7,13,6,15,T,2,,252
2011-2-4,29,19,9,19,9,1,92,66,40,30.39,30.20,29.95,10,10,8,13,6,17,0.00,1,,222
2011-2-5,28,26,23,27,23,19,100,88,75,29.91,29.69,29.55,10,4,0,18,7,21,0.00,8,Fog-Snow,215
2011-2-6,35,32,28,31,27,23,92,84,75,29.95,29.91,29.85,10,8,2,16,8,21,T,8,Snow,212
2011-2-7,33,27,21,31,27,14,100,82,63,30.01,29.92,29.86,10,5,0,16,9,21,0.19,8,Fog,314
2011-2-8,24,14,4,21,11,0,92,81,70,30.41,30.19,29.99,10,5,2,20,10,22,T,6,Snow,278
2011-2-9,15,9,2,1,-3,-6,91,66,40,30.41,30.29,30.21,10,10,10,17,9,21,0.00,0,,259
2011-2-10,19,7,-5,4,-3,-10,87,67,46,30.26,30.19,30.08,10,10,7,15,8,23,0.00,0,,230
2011-2-11,32,23,14,18,9,5,67,56,45,30.12,30.05,29.98,10,10,10,20,11,24,0.00,4,,222
2011-2-12,38,32,26,27,24,20,84,70,56,30.19,30.08,29.95,10,9,2,21,12,28,0.56,5,Snow,249
2011-2-13,47,41,34,30,28,26,75,62,49,30.01,29.85,29.67,10,10,10,26,16,37,0.00,1,,216
2011-2-14,49,39,28,31,29,20,85,68,50,30.37,30.01,29.66,10,10,10,29,16,39,0.00,4,,290
2011-2-15,37,28,19,25,20,16,91,70,48,30.44,30.32,30.14,10,10,10,18,8,24,0.00,0,,144
2011-2-16,56,46,35,43,33,23,71,61,50,30.13,30.06,29.99,10,10,10,16,9,22,0.00,4,,195
2011-2-17,60,55,49,50,45,40,77,70,62,29.98,29.86,29.75,10,10,9,30,16,40,0.00,6,,200
2011-2-18,59,48,36,52,37,25,83,61,38,30.25,30.03,29.79,10,10,9,26,15,33,0.00,2,,271
2011-2-19,46,36,26,24,23,21,75,58,40,30.38,30.34,30.27,10,10,10,13,7,21,0.00,0,,356
2011-2-20,51,39,26,42,28,22,82,71,59,30.32,29.97,29.61,10,10,9,21,10,27,0.04,5,Rain,153
2011-2-21,55,38,21,49,30,19,100,86,71,29.92,29.71,29.59,10,5,2,23,14,29,0.70,8,Rain-Snow,62
2011-2-22,25,23,20,20,18,17,92,87,81,30.30,30.13,29.94,10,7,2,15,7,21,0.00,8,Snow,53
2011-2-23,35,28,21,31,23,17,96,87,78,30.33,30.23,30.01,10,6,2,18,7,24,0.07,7,Rain,143
2011-2-24,37,34,31,34,32,28,92,87,82,30.06,29.96,29.68,8,3,1,23,9,30,0.17,8,Snow,40
2011-2-25,32,26,20,28,24,18,100,79,58,30.22,29.89,29.55,10,4,0,33,13,40,0.05,6,Fog-Snow,358
2011-2-26,34,28,22,31,26,21,92,81,69,30.17,30.01,29.86,10,8,6,13,5,17,0.00,8,,197
2011-2-27,59,47,34,57,43,30,96,84,71,29.93,29.73,29.49,10,6,2,18,9,25,0.40,8,Rain-Thunderstorm,190
2011-2-28,60,44,27,57,40,23,100,85,70,30.26,29.73,29.39,10,7,1,29,13,48,2.68,6,Rain-Thunderstorm,325